createdAt,value
2017-10-28T00:00:28.234Z,79.06
2017-10-28T00:01:08.743Z,79.16
2017-10-28T00:01:49.321Z,78.78
2017-10-28T00:02:29.840Z,79.44
2017-10-28T00:03:10.408Z,79.5
2017-10-28T00:03:50.905Z,79.16
2017-10-28T00:04:31.434Z,79.64
2017-10-28T00:05:11.982Z,79.35
2017-10-28T00:05:52.544Z,79.16
2017-10-28T00:06:33.100Z,79.44
2017-10-28T00:07:13.626Z,79.22
2017-10-28T00:07:54.172Z,79.16
2017-10-28T00:08:34.672Z,79.35
2017-10-28T00:09:15.247Z,79.35
2017-10-28T00:09:55.723Z,79.35
2017-10-28T00:10:36.281Z,79.35
2017-10-28T00:11:16.831Z,79.35
2017-10-28T00:11:57.338Z,79.44
2017-10-28T00:12:37.856Z,79.44
2017-10-28T00:13:18.472Z,79.44
2017-10-28T00:13:59.032Z,79.25
2017-10-28T00:14:39.579Z,80.02
2017-10-28T00:15:20.060Z,79.54
2017-10-28T00:16:00.605Z,79.83
2017-10-28T00:16:41.142Z,79.54
2017-10-28T00:17:21.728Z,79.25
2017-10-28T00:18:02.240Z,79.54
2017-10-28T00:18:42.779Z,79.54
2017-10-28T00:19:23.321Z,79.54
2017-10-28T00:20:03.844Z,79.06
2017-10-28T00:20:44.420Z,80.02
2017-10-28T00:21:24.935Z,79.25
2017-10-28T00:22:05.445Z,79.16
2017-10-28T00:22:46.028Z,79.73
2017-10-28T00:23:26.618Z,79.35
2017-10-28T00:24:07.140Z,79.54
2017-10-28T00:24:47.684Z,79.5
2017-10-28T00:25:28.176Z,79.69
2017-10-28T00:26:08.669Z,79.88
2017-10-28T00:26:49.203Z,80.17
2017-10-28T00:27:29.803Z,80.27
2017-10-28T00:28:10.306Z,80.65
2017-10-28T00:28:50.863Z,80.27
2017-10-28T00:29:31.399Z,80.17
2017-10-28T00:30:11.984Z,79.73
2017-10-28T00:30:52.475Z,80.02
2017-10-28T00:31:33.024Z,79.69
2017-10-28T00:32:13.573Z,80.02
2017-10-28T00:32:54.127Z,79.83
2017-10-28T00:33:34.611Z,80.02
2017-10-28T00:34:15.162Z,80.36
2017-10-28T00:34:55.689Z,80.21
2017-10-28T00:35:36.229Z,79.93
2017-10-28T00:36:16.812Z,80.4
2017-10-28T00:36:57.345Z,80.59
2017-10-28T00:37:37.848Z,80.46
2017-10-28T00:38:18.409Z,80.65
2017-10-28T00:38:58.921Z,80.07
2017-10-28T00:39:39.528Z,80.27
2017-10-28T00:40:20.037Z,80.17
2017-10-28T00:41:00.560Z,80.27
2017-10-28T00:41:41.950Z,80.74
2017-10-28T00:42:21.686Z,80.55
2017-10-28T00:43:02.214Z,80.74
2017-10-28T00:43:42.764Z,80.27
2017-10-28T00:44:23.296Z,80.4
2017-10-28T00:45:03.856Z,80.46
2017-10-28T00:45:44.389Z,80.36
2017-10-28T00:46:24.929Z,80.36
2017-10-28T00:47:05.471Z,80.3
2017-10-28T00:47:46.026Z,80.36
2017-10-28T00:48:26.548Z,80.4
2017-10-28T00:49:07.134Z,80.4
2017-10-28T00:49:47.673Z,80.59
2017-10-28T00:50:28.169Z,80.21
2017-10-28T00:51:08.729Z,80.02
2017-10-28T00:51:49.273Z,79.93
2017-10-28T00:52:29.809Z,80.07
2017-10-28T00:53:10.372Z,80.79
2017-10-28T00:53:50.879Z,80.3
2017-10-28T00:54:31.480Z,80.46
2017-10-28T00:55:12.000Z,80.02
2017-10-28T00:55:52.468Z,80.02
2017-10-28T00:56:33.045Z,80.11
2017-10-28T00:57:13.574Z,79.83
2017-10-28T00:57:54.165Z,79.83
2017-10-28T00:58:34.689Z,79.93
2017-10-28T00:59:15.214Z,80.4
2017-10-28T00:59:55.763Z,79.93
2017-10-28T01:00:36.236Z,80.21
2017-10-28T01:01:16.767Z,80.02
2017-10-28T01:01:57.264Z,79.98
2017-10-28T01:02:37.824Z,80.02
2017-10-28T01:03:18.420Z,79.5
2017-10-28T01:03:58.940Z,79.6
2017-10-28T01:04:39.459Z,79.69
2017-10-28T01:05:20.001Z,80.17
2017-10-28T01:06:00.612Z,80.17
2017-10-28T01:06:41.150Z,80.27
2017-10-28T01:07:21.718Z,80.55
2017-10-28T01:08:02.243Z,80.36
2017-10-28T01:08:42.765Z,80.17
2017-10-28T01:09:23.282Z,80.55
2017-10-28T01:10:03.842Z,80.74
2017-10-28T01:10:44.356Z,80.27
2017-10-28T01:11:24.849Z,80.11
2017-10-28T01:12:05.391Z,79.98
2017-10-28T01:12:45.945Z,79.88
2017-10-28T01:13:26.480Z,79.98
2017-10-28T01:14:07.032Z,80.46
2017-10-28T01:14:47.584Z,80.36
2017-10-28T01:15:28.119Z,80.55
2017-10-28T01:16:08.660Z,80.55
2017-10-28T01:16:49.172Z,80.65
2017-10-28T01:17:29.689Z,80.46
2017-10-28T01:18:10.280Z,80.46
2017-10-28T01:18:50.755Z,80.36
2017-10-28T01:19:31.321Z,80.65
2017-10-28T01:20:11.810Z,80.74
2017-10-28T01:20:52.397Z,80.55
2017-10-28T01:21:32.868Z,80.55
2017-10-28T01:22:13.455Z,81.03
2017-10-28T01:22:53.971Z,81.03
2017-10-28T01:23:34.506Z,81.03
2017-10-28T01:24:15.048Z,80.27
2017-10-28T01:24:55.546Z,80.74
2017-10-28T01:25:36.083Z,80.55
2017-10-28T01:26:16.631Z,80.46
2017-10-28T01:26:57.147Z,79.79
2017-10-28T01:27:37.704Z,80.74
2017-10-28T01:28:18.206Z,80.84
2017-10-28T01:28:58.730Z,80.84
2017-10-28T01:29:39.260Z,80.84
2017-10-28T01:30:19.761Z,80.93
2017-10-28T01:31:00.344Z,80.55
2017-10-28T01:31:40.875Z,81.51
2017-10-28T01:32:21.395Z,81.22
2017-10-28T01:33:01.911Z,80.65
2017-10-28T01:33:42.444Z,80.93
2017-10-28T01:34:22.991Z,80.55
2017-10-28T01:35:03.484Z,80.84
2017-10-28T01:35:44.030Z,80.65
2017-10-28T01:36:24.529Z,80.32
2017-10-28T01:37:05.126Z,80.9
2017-10-28T01:37:45.606Z,80.7
2017-10-28T01:38:26.152Z,81.76
2017-10-28T01:39:06.752Z,81.76
2017-10-28T01:39:47.259Z,81.95
2017-10-28T01:40:27.785Z,82.32
2017-10-28T01:41:08.334Z,82.23
2017-10-28T01:41:48.873Z,82.23
2017-10-28T01:42:29.382Z,81.47
2017-10-28T01:43:09.917Z,81.27
2017-10-28T01:43:50.438Z,81.85
2017-10-28T01:44:31.004Z,82.04
2017-10-28T01:45:11.495Z,81.95
2017-10-28T01:45:52.068Z,81.71
2017-10-28T01:46:32.558Z,82.29
2017-10-28T01:47:13.135Z,82.57
2017-10-28T01:47:53.634Z,82.29
2017-10-28T01:48:34.148Z,82.48
2017-10-28T01:49:14.717Z,82.95
2017-10-28T01:49:55.263Z,82.86
2017-10-28T01:50:35.783Z,83
2017-10-28T01:51:16.350Z,82.81
2017-10-28T01:51:56.860Z,82.32
2017-10-28T01:52:37.384Z,82.23
2017-10-28T01:53:17.913Z,82.09
2017-10-28T01:53:58.424Z,82.19
2017-10-28T01:54:38.957Z,82.95
2017-10-28T01:55:19.477Z,82.57
2017-10-28T01:56:00.060Z,83.14
2017-10-28T01:56:40.563Z,82.76
2017-10-28T01:57:21.124Z,83.14
2017-10-28T01:58:01.651Z,83.34
2017-10-28T01:58:42.223Z,83.62
2017-10-28T01:59:22.767Z,83.67
2017-10-28T02:00:03.287Z,84.48
2017-10-28T02:00:43.819Z,83.72
2017-10-28T02:01:24.380Z,83.81
2017-10-28T02:02:04.891Z,84.58
2017-10-28T02:02:45.458Z,83.81
2017-10-28T02:03:25.945Z,83.14
2017-10-28T02:04:06.493Z,83.34
2017-10-28T02:04:46.997Z,83.24
2017-10-28T02:05:27.511Z,83.34
2017-10-28T02:06:08.070Z,83.14
2017-10-28T02:06:48.591Z,83.14
2017-10-28T02:07:29.097Z,82.95
2017-10-28T02:08:09.649Z,82.67
2017-10-28T02:08:50.188Z,83.34
2017-10-28T02:09:30.720Z,83.81
2017-10-28T02:10:11.214Z,82.95
2017-10-28T02:10:51.732Z,82.95
2017-10-28T02:11:32.275Z,83.34
2017-10-28T02:12:12.779Z,83.24
2017-10-28T02:12:53.341Z,83.05
2017-10-28T02:13:33.873Z,82.67
2017-10-28T02:14:14.434Z,83.53
2017-10-28T02:14:54.939Z,82.95
2017-10-28T02:15:35.504Z,83.34
2017-10-28T02:16:16.008Z,83.53
2017-10-28T02:16:56.534Z,83.62
2017-10-28T02:17:37.074Z,84.58
2017-10-28T02:18:17.584Z,84.2
2017-10-28T02:18:58.189Z,83.43
2017-10-28T02:19:38.698Z,83.72
2017-10-28T02:20:19.253Z,83.67
2017-10-28T02:20:59.751Z,84.16
2017-10-28T02:21:40.282Z,84.25
2017-10-28T02:22:20.835Z,84.34
2017-10-28T02:23:01.387Z,84.25
2017-10-28T02:23:41.913Z,84.63
2017-10-28T02:24:22.478Z,85.01
2017-10-28T02:25:03.002Z,84.53
2017-10-28T02:25:43.522Z,84.34
2017-10-28T02:26:24.112Z,84.34
2017-10-28T02:27:04.669Z,84
2017-10-28T02:27:45.189Z,84.25
2017-10-28T02:28:25.725Z,84.06
2017-10-28T02:29:06.252Z,84.34
2017-10-28T02:29:46.768Z,84.92
2017-10-28T02:30:27.299Z,84.72
2017-10-28T02:31:07.858Z,84.53
2017-10-28T02:31:48.369Z,84.82
2017-10-28T02:32:28.925Z,84.53
2017-10-28T02:33:09.422Z,84.25
2017-10-28T02:33:49.947Z,84.82
2017-10-28T02:34:30.498Z,85.11
2017-10-28T02:35:11.079Z,85.39
2017-10-28T02:35:51.584Z,85.49
2017-10-28T02:36:32.111Z,85.87
2017-10-28T02:37:12.648Z,85.01
2017-10-28T02:37:53.180Z,85.11
2017-10-28T02:38:33.712Z,85.3
2017-10-28T02:39:14.214Z,85.3
2017-10-28T02:39:54.776Z,84.53
2017-10-28T02:40:35.303Z,85.11
2017-10-28T02:41:15.853Z,85.39
2017-10-28T02:41:56.344Z,85.21
2017-10-28T02:42:36.882Z,85.58
2017-10-28T02:43:17.432Z,85.68
2017-10-28T02:43:57.961Z,85.3
2017-10-28T02:44:38.507Z,84.92
2017-10-28T02:45:19.056Z,85.68
2017-10-28T02:45:59.570Z,85.49
2017-10-28T02:46:40.109Z,85.01
2017-10-28T02:47:20.705Z,85.58
2017-10-28T02:48:01.198Z,85.49
2017-10-28T02:48:41.740Z,84.82
2017-10-28T02:49:22.305Z,85.01
2017-10-28T02:50:02.872Z,85.87
2017-10-28T02:50:43.459Z,85.58
2017-10-28T02:51:24.022Z,85.58
2017-10-28T02:52:04.537Z,85.01
2017-10-28T02:52:45.071Z,85.64
2017-10-28T02:53:25.638Z,85.93
2017-10-28T02:54:06.170Z,85.45
2017-10-28T02:54:46.718Z,86.11
2017-10-28T02:55:27.256Z,86.21
2017-10-28T02:56:07.792Z,85.83
2017-10-28T02:56:48.304Z,85.83
2017-10-28T02:57:28.860Z,85.83
2017-10-28T02:58:09.388Z,86.3
2017-10-28T02:58:49.966Z,85.64
2017-10-28T02:59:30.501Z,85.73
2017-10-28T03:00:11.027Z,86.3
2017-10-28T03:00:51.510Z,86.4
2017-10-28T03:01:32.047Z,86.4
2017-10-28T03:02:12.589Z,86.49
2017-10-28T03:02:53.120Z,86.69
2017-10-28T03:03:33.867Z,87.35
2017-10-28T03:04:14.413Z,87.07
2017-10-28T03:04:54.958Z,87.45
2017-10-28T03:05:35.466Z,86.69
2017-10-28T03:06:16.097Z,87.54
2017-10-28T03:06:56.604Z,86.59
2017-10-28T03:07:37.139Z,86.69
2017-10-28T03:08:17.634Z,86.69
2017-10-28T03:08:58.195Z,86.69
2017-10-28T03:09:38.720Z,86.49
2017-10-28T03:10:19.248Z,86.69
2017-10-28T03:10:59.736Z,86.69
2017-10-28T03:11:40.252Z,86.59
2017-10-28T03:12:20.791Z,86.02
2017-10-28T03:13:01.295Z,85.64
2017-10-28T03:13:41.831Z,85.25
2017-10-28T03:14:22.332Z,85.73
2017-10-28T03:15:02.886Z,85.54
2017-10-28T03:15:43.370Z,85.83
2017-10-28T03:16:23.902Z,85.93
2017-10-28T03:17:04.447Z,85.64
2017-10-28T03:17:44.967Z,85.64
2017-10-28T03:18:25.500Z,86.02
2017-10-28T03:19:06.027Z,86.11
2017-10-28T03:19:46.601Z,86.4
2017-10-28T03:20:27.170Z,86.21
2017-10-28T03:21:07.637Z,86.21
2017-10-28T03:21:48.179Z,85.73
2017-10-28T03:22:28.737Z,85.83
2017-10-28T03:23:09.290Z,85.97
2017-10-28T03:23:49.824Z,85.73
2017-10-28T03:24:30.387Z,85.83
2017-10-28T03:25:10.893Z,85.93
2017-10-28T03:25:51.405Z,86.02
2017-10-28T03:26:31.941Z,86.02
2017-10-28T03:27:12.493Z,85.73
2017-10-28T03:27:53.040Z,86.02
2017-10-28T03:28:33.594Z,85.93
2017-10-28T03:29:14.134Z,85.64
2017-10-28T03:29:54.660Z,85.93
2017-10-28T03:30:35.193Z,85.83
2017-10-28T03:31:15.718Z,85.58
2017-10-28T03:31:56.240Z,85.87
2017-10-28T03:32:36.775Z,85.68
2017-10-28T03:33:17.287Z,85.35
2017-10-28T03:33:57.850Z,85.45
2017-10-28T03:34:38.393Z,85.35
2017-10-28T03:35:18.926Z,86.21
2017-10-28T03:35:59.503Z,86.21
2017-10-28T03:36:40.051Z,86.02
2017-10-28T03:37:20.590Z,85.35
2017-10-28T03:38:01.103Z,85.93
2017-10-28T03:38:41.649Z,85.83
2017-10-28T03:39:22.135Z,85.93
2017-10-28T03:40:02.651Z,86.02
2017-10-28T03:40:43.197Z,85.93
2017-10-28T03:41:23.742Z,85.93
2017-10-28T03:42:04.278Z,86.21
2017-10-28T03:42:44.818Z,86.4
2017-10-28T03:43:25.344Z,86.49
2017-10-28T03:44:05.904Z,86.4
2017-10-28T03:44:46.408Z,86.3
2017-10-28T03:45:26.966Z,85.83
2017-10-28T03:46:07.579Z,85.83
2017-10-28T03:46:48.115Z,85.73
2017-10-28T03:47:28.658Z,85.83
2017-10-28T03:48:09.187Z,86.59
2017-10-28T03:48:49.710Z,86.59
2017-10-28T03:49:30.258Z,86.69
2017-10-28T03:50:10.785Z,86.49
2017-10-28T03:50:51.327Z,86.4
2017-10-28T03:51:31.841Z,86.49
2017-10-28T03:52:12.360Z,87.54
2017-10-28T03:52:52.897Z,87.07
2017-10-28T03:53:33.397Z,86.59
2017-10-28T03:54:13.987Z,86.3
2017-10-28T03:54:55.349Z,86.21
2017-10-28T03:55:35.903Z,86.11
2017-10-28T03:56:16.452Z,86.21
2017-10-28T03:56:57.008Z,86.02
2017-10-28T03:57:37.534Z,85.83
2017-10-28T03:58:18.050Z,85.54
2017-10-28T03:58:58.601Z,85.35
2017-10-28T03:59:39.117Z,85.68
2017-10-28T04:00:19.755Z,85.49
2017-10-28T04:01:00.305Z,85.3
2017-10-28T04:01:40.871Z,85.25
2017-10-28T04:02:21.435Z,84.78
2017-10-28T04:03:01.963Z,85.06
2017-10-28T04:03:42.456Z,85.83
2017-10-28T04:04:23.047Z,86.59
2017-10-28T04:05:03.533Z,86.4
2017-10-28T04:05:44.045Z,86.21
2017-10-28T04:06:24.571Z,86.88
2017-10-28T04:07:05.094Z,87.02
2017-10-28T04:07:45.640Z,86.55
2017-10-28T04:08:26.177Z,86.74
2017-10-28T04:09:06.674Z,87.5
2017-10-28T04:09:47.201Z,87.21
2017-10-28T04:10:27.733Z,87.5
2017-10-28T04:11:08.287Z,87.21
2017-10-28T04:11:48.830Z,87.5
2017-10-28T04:12:29.386Z,86.88
2017-10-28T04:13:09.928Z,86.78
2017-10-28T04:13:50.455Z,86.55
2017-10-28T04:14:31.016Z,86.49
2017-10-28T04:15:11.557Z,86.69
2017-10-28T04:15:52.073Z,86.83
2017-10-28T04:16:32.573Z,86.45
2017-10-28T04:17:13.125Z,87.21
2017-10-28T04:17:53.665Z,87.35
2017-10-28T04:18:34.143Z,87.07
2017-10-28T04:19:14.681Z,86.65
2017-10-28T04:19:55.234Z,86.65
2017-10-28T04:20:35.770Z,86.83
2017-10-28T04:21:16.257Z,87.31
2017-10-28T04:21:56.798Z,87.5
2017-10-28T04:22:37.364Z,87.12
2017-10-28T04:23:17.894Z,87.6
2017-10-28T04:23:58.416Z,87.69
2017-10-28T04:24:38.929Z,87.98
2017-10-28T04:25:19.508Z,87.6
2017-10-28T04:26:00.029Z,87.88
2017-10-28T04:26:40.612Z,88.07
2017-10-28T04:27:21.078Z,87.69
2017-10-28T04:28:01.642Z,87.88
2017-10-28T04:28:42.149Z,87.69
2017-10-28T04:29:22.672Z,87.79
2017-10-28T04:30:03.219Z,87.79
2017-10-28T04:30:43.730Z,88.07
2017-10-28T04:31:24.271Z,87.6
2017-10-28T04:32:04.771Z,87.6
2017-10-28T04:32:45.339Z,87.5
2017-10-28T04:33:25.872Z,87.6
2017-10-28T04:34:06.407Z,87.69
2017-10-28T04:34:46.957Z,87.6
2017-10-28T04:35:27.440Z,87.79
2017-10-28T04:36:08.014Z,87.88
2017-10-28T04:36:48.514Z,87.79
2017-10-28T04:37:29.050Z,87.69
2017-10-28T04:38:09.624Z,87.79
2017-10-28T04:38:50.194Z,88.03
2017-10-28T04:39:30.787Z,88.07
2017-10-28T04:40:11.383Z,87.93
2017-10-28T04:40:51.914Z,88.6
2017-10-28T04:41:32.406Z,88.79
2017-10-28T04:42:12.986Z,88.79
2017-10-28T04:42:53.487Z,88.79
2017-10-28T04:43:34.043Z,89.07
2017-10-28T04:44:14.597Z,88.7
2017-10-28T04:44:55.140Z,89.26
2017-10-28T04:45:35.694Z,88.84
2017-10-28T04:46:16.261Z,88.36
2017-10-28T04:46:56.824Z,88.93
2017-10-28T04:47:37.337Z,88.84
2017-10-28T04:48:17.897Z,88.07
2017-10-28T04:48:58.455Z,87.98
2017-10-28T04:49:38.995Z,88.07
2017-10-28T04:50:19.592Z,88.07
2017-10-28T04:51:00.102Z,87.69
2017-10-28T04:51:40.643Z,87.6
2017-10-28T04:52:21.208Z,87.79
2017-10-28T04:53:01.756Z,87.6
2017-10-28T04:53:42.255Z,87.6
2017-10-28T04:54:22.790Z,87.6
2017-10-28T04:55:03.329Z,87.21
2017-10-28T04:55:43.842Z,88.07
2017-10-28T04:56:24.382Z,87.69
2017-10-28T04:57:04.938Z,87.69
2017-10-28T04:57:45.412Z,87.98
2017-10-28T04:58:25.960Z,87.74
2017-10-28T04:59:06.524Z,87.35
2017-10-28T04:59:47.034Z,86.88
2017-10-28T05:00:27.575Z,87.35
2017-10-28T05:01:08.104Z,86.78
2017-10-28T05:01:48.677Z,86.78
2017-10-28T05:02:29.225Z,86.88
2017-10-28T05:03:09.766Z,86.69
2017-10-28T05:03:50.418Z,86.4
2017-10-28T05:04:30.881Z,86.55
2017-10-28T05:05:11.402Z,87.31
2017-10-28T05:05:51.912Z,87.12
2017-10-28T05:06:32.416Z,87.6
2017-10-28T05:07:12.924Z,87.5
2017-10-28T05:07:53.475Z,87.54
2017-10-28T05:08:34.055Z,87.35
2017-10-28T05:09:14.598Z,86.88
2017-10-28T05:09:55.122Z,87.31
2017-10-28T05:10:35.732Z,86.88
2017-10-28T05:11:16.283Z,87.26
2017-10-28T05:11:56.804Z,86.78
2017-10-28T05:12:37.294Z,86.4
2017-10-28T05:13:17.814Z,86.21
2017-10-28T05:13:58.375Z,86.4
2017-10-28T05:14:38.848Z,86.4
2017-10-28T05:15:19.361Z,86.3
2017-10-28T05:15:59.900Z,86.78
2017-10-28T05:16:40.407Z,86.78
2017-10-28T05:17:20.966Z,86.4
2017-10-28T05:18:01.572Z,86.83
2017-10-28T05:18:42.122Z,87.45
2017-10-28T05:19:22.699Z,87.35
2017-10-28T05:20:03.230Z,87.26
2017-10-28T05:20:43.886Z,86.59
2017-10-28T05:21:24.475Z,86.59
2017-10-28T05:22:05.102Z,87.07
2017-10-28T05:22:45.623Z,86.4
2017-10-28T05:23:26.113Z,86.4
2017-10-28T05:24:06.639Z,86.4
2017-10-28T05:24:47.153Z,85.83
2017-10-28T05:25:27.687Z,85.93
2017-10-28T05:26:08.205Z,85.83
2017-10-28T05:26:48.801Z,86.21
2017-10-28T05:27:29.248Z,85.73
2017-10-28T05:28:09.785Z,85.64
2017-10-28T05:28:50.270Z,85.73
2017-10-28T05:29:30.856Z,86.02
2017-10-28T05:30:11.546Z,86.21
2017-10-28T05:30:53.325Z,85.64
2017-10-28T05:31:33.928Z,86.59
2017-10-28T05:32:14.436Z,86.49
2017-10-28T05:32:54.913Z,86.4
2017-10-28T05:33:35.574Z,86.59
2017-10-28T05:34:16.217Z,86.4
2017-10-28T05:34:56.788Z,86.4
2017-10-28T05:35:37.213Z,86.49
2017-10-28T05:36:17.821Z,86.69
2017-10-28T05:36:58.328Z,86.88
2017-10-28T05:37:38.903Z,86.49
2017-10-28T05:38:19.443Z,86.88
2017-10-28T05:38:59.951Z,86.98
2017-10-28T05:39:40.462Z,86.59
2017-10-28T05:40:21.033Z,86.69
2017-10-28T05:41:01.547Z,86.98
2017-10-28T05:41:42.180Z,86.59
2017-10-28T05:42:22.660Z,86.4
2017-10-28T05:43:03.205Z,86.4
2017-10-28T05:43:43.773Z,86.4
2017-10-28T05:44:24.264Z,86.21
2017-10-28T05:45:04.835Z,86.59
2017-10-28T05:45:45.393Z,86.4
2017-10-28T05:46:25.907Z,86.49
2017-10-28T05:47:06.505Z,86.21
2017-10-28T05:47:47.007Z,86.4
2017-10-28T05:48:27.543Z,86.69
2017-10-28T05:49:08.148Z,86.21
2017-10-28T05:49:48.652Z,86.4
2017-10-28T05:50:29.186Z,86.4
2017-10-28T05:51:09.710Z,86.49
2017-10-28T05:51:50.406Z,86.59
2017-10-28T05:52:30.955Z,86.4
2017-10-28T05:53:11.456Z,86.69
2017-10-28T05:53:52.117Z,86.78
2017-10-28T05:54:32.614Z,86.78
2017-10-28T05:55:13.147Z,86.88
2017-10-28T05:55:53.719Z,86.69
2017-10-28T05:56:34.228Z,86.59
2017-10-28T05:57:14.807Z,86.98
2017-10-28T05:57:55.292Z,86.88
2017-10-28T05:58:35.807Z,87.26
2017-10-28T05:59:16.306Z,87.35
2017-10-28T05:59:56.844Z,87.45
2017-10-28T06:00:37.363Z,88.12
2017-10-28T06:01:17.975Z,87.35
2017-10-28T06:01:58.495Z,86.59
2017-10-28T06:02:39.037Z,87.45
2017-10-28T06:03:19.538Z,87.74
2017-10-28T06:04:00.085Z,87.07
2017-10-28T06:04:40.783Z,86.98
2017-10-28T06:05:21.305Z,86.98
2017-10-28T06:06:01.841Z,87.54
2017-10-28T06:06:42.323Z,87.93
2017-10-28T06:07:22.836Z,87.79
2017-10-28T06:08:03.407Z,87.93
2017-10-28T06:08:43.943Z,87.69
2017-10-28T06:09:24.419Z,88.12
2017-10-28T06:10:04.946Z,88.12
2017-10-28T06:10:45.464Z,87.74
2017-10-28T06:11:26.021Z,87.54
2017-10-28T06:12:06.533Z,87.64
2017-10-28T06:12:47.094Z,88.21
2017-10-28T06:13:27.642Z,87.83
2017-10-28T06:14:08.215Z,88.02
2017-10-28T06:14:48.710Z,88.31
2017-10-28T06:15:29.227Z,87.74
2017-10-28T06:16:09.785Z,87.93
2017-10-28T06:16:50.291Z,87.45
2017-10-28T06:17:30.830Z,87.74
2017-10-28T06:18:11.364Z,87.64
2017-10-28T06:18:51.864Z,87.07
2017-10-28T06:19:32.420Z,87.16
2017-10-28T06:20:12.990Z,87.45
2017-10-28T06:20:53.496Z,87.93
2017-10-28T06:21:34.070Z,87.74
2017-10-28T06:22:14.614Z,87.98
2017-10-28T06:22:55.124Z,87.69
2017-10-28T06:23:35.698Z,88.17
2017-10-28T06:24:16.195Z,88.45
2017-10-28T06:24:56.714Z,88.36
2017-10-28T06:25:37.297Z,89.22
2017-10-28T06:26:17.792Z,89.12
2017-10-28T06:26:58.354Z,89.31
2017-10-28T06:27:38.825Z,88.93
2017-10-28T06:28:19.417Z,88.59
2017-10-28T06:28:59.924Z,88.26
2017-10-28T06:29:40.468Z,88.4
2017-10-28T06:30:20.950Z,87.74
2017-10-28T06:31:01.509Z,87.83
2017-10-28T06:31:42.064Z,88.12
2017-10-28T06:32:22.589Z,88.69
2017-10-28T06:33:03.154Z,88.12
2017-10-28T06:33:43.751Z,88.21
2017-10-28T06:34:24.496Z,88.36
2017-10-28T06:35:05.020Z,88.4
2017-10-28T06:35:45.534Z,88.84
2017-10-28T06:36:26.096Z,88.78
2017-10-28T06:37:06.602Z,88.69
2017-10-28T06:37:47.154Z,88.45
2017-10-28T06:38:27.671Z,88.78
2017-10-28T06:39:08.224Z,88.5
2017-10-28T06:39:48.818Z,88.5
2017-10-28T06:40:29.327Z,88.5
2017-10-28T06:41:09.886Z,88.69
2017-10-28T06:41:50.377Z,88.78
2017-10-28T06:42:30.941Z,88.59
2017-10-28T06:43:11.477Z,88.5
2017-10-28T06:43:52.090Z,89.17
2017-10-28T06:44:32.696Z,88.88
2017-10-28T06:45:13.197Z,88.69
2017-10-28T06:45:53.718Z,88.5
2017-10-28T06:46:34.253Z,88.69
2017-10-28T06:47:14.791Z,88.78
2017-10-28T06:47:55.281Z,88.59
2017-10-28T06:48:35.828Z,88.98
2017-10-28T06:49:16.371Z,88.78
2017-10-28T06:49:56.910Z,88.69
2017-10-28T06:50:37.442Z,88.98
2017-10-28T06:51:17.976Z,88.5
2017-10-28T06:51:58.802Z,88.4
2017-10-28T06:52:39.594Z,88.4
2017-10-28T06:53:20.147Z,88.98
2017-10-28T06:54:00.694Z,89.36
2017-10-28T06:54:41.257Z,88.59
2017-10-28T06:55:21.784Z,89.17
2017-10-28T06:56:02.268Z,88.78
2017-10-28T06:56:42.837Z,88.78
2017-10-28T06:57:23.364Z,88.78
2017-10-28T06:58:03.916Z,88.78
2017-10-28T06:58:44.433Z,88.88
2017-10-28T06:59:25.019Z,88.69
2017-10-28T07:00:05.577Z,88.69
2017-10-28T07:00:46.086Z,88.78
2017-10-28T07:01:26.657Z,88.78
2017-10-28T07:02:07.137Z,88.88
2017-10-28T07:02:47.684Z,88.98
2017-10-28T07:03:28.225Z,88.88
2017-10-28T07:04:09.571Z,88.88
2017-10-28T07:04:50.099Z,89.17
2017-10-28T07:05:30.654Z,88.59
2017-10-28T07:06:11.210Z,88.59
2017-10-28T07:06:51.752Z,89.17
2017-10-28T07:07:32.270Z,88.78
2017-10-28T07:08:12.800Z,88.69
2017-10-28T07:08:53.360Z,88.78
2017-10-28T07:09:33.880Z,88.93
2017-10-28T07:10:14.432Z,88.88
2017-10-28T07:10:55.009Z,88.88
2017-10-28T07:11:35.613Z,89.07
2017-10-28T07:12:16.175Z,88.78
2017-10-28T07:12:56.717Z,88.12
2017-10-28T07:13:37.249Z,88.59
2017-10-28T07:14:17.796Z,88.4
2017-10-28T07:14:58.306Z,89.17
2017-10-28T07:15:38.872Z,88.88
2017-10-28T07:16:19.434Z,88.59
2017-10-28T07:16:59.945Z,88.59
2017-10-28T07:17:40.462Z,87.93
2017-10-28T07:18:21.008Z,88.78
2017-10-28T07:19:01.592Z,88.78
2017-10-28T07:19:42.110Z,88.5
2017-10-28T07:20:22.732Z,88.88
2017-10-28T07:21:03.220Z,88.59
2017-10-28T07:21:43.756Z,88.4
2017-10-28T07:22:24.365Z,88.69
2017-10-28T07:23:04.949Z,88.59
2017-10-28T07:23:45.468Z,88.69
2017-10-28T07:24:26.005Z,88.55
2017-10-28T07:25:06.579Z,88.69
2017-10-28T07:25:47.057Z,88.78
2017-10-28T07:26:27.618Z,88.5
2017-10-28T07:27:08.101Z,88.88
2017-10-28T07:27:48.688Z,88.98
2017-10-28T07:28:29.174Z,88.88
2017-10-28T07:29:09.721Z,88.4
2017-10-28T07:29:50.292Z,88.59
2017-10-28T07:30:30.786Z,88.12
2017-10-28T07:31:11.370Z,87.64
2017-10-28T07:31:51.891Z,88.12
2017-10-28T07:32:32.433Z,87.93
2017-10-28T07:33:12.972Z,88.02
2017-10-28T07:33:53.504Z,87.64
2017-10-28T07:34:34.047Z,87.45
2017-10-28T07:35:14.591Z,87.54
2017-10-28T07:35:55.074Z,87.74
2017-10-28T07:36:35.645Z,87.45
2017-10-28T07:37:16.208Z,87.83
2017-10-28T07:37:57.583Z,87.54
2017-10-28T07:38:37.390Z,87.45
2017-10-28T07:39:17.943Z,87.74
2017-10-28T07:39:58.524Z,87.93
2017-10-28T07:40:39.012Z,87.83
2017-10-28T07:41:19.591Z,87.54
2017-10-28T07:42:00.168Z,88.02
2017-10-28T07:42:40.726Z,87.83
2017-10-28T07:43:21.288Z,87.64
2017-10-28T07:44:01.815Z,87.83
2017-10-28T07:44:42.497Z,88.02
2017-10-28T07:45:23.075Z,87.83
2017-10-28T07:46:03.591Z,87.45
2017-10-28T07:46:44.141Z,87.49
2017-10-28T07:47:24.699Z,87.68
2017-10-28T07:48:05.260Z,87.11
2017-10-28T07:48:45.775Z,87.78
2017-10-28T07:49:26.358Z,86.82
2017-10-28T07:50:06.868Z,87.49
2017-10-28T07:50:47.447Z,87.87
2017-10-28T07:51:27.963Z,87.83
2017-10-28T07:52:08.528Z,87.87
2017-10-28T07:52:49.074Z,87.68
2017-10-28T07:53:29.668Z,87.21
2017-10-28T07:54:10.187Z,87.4
2017-10-28T07:54:50.706Z,86.73
2017-10-28T07:55:31.234Z,86.54
2017-10-28T07:56:11.843Z,86.73
2017-10-28T07:56:52.359Z,86.35
2017-10-28T07:57:32.905Z,86.25
2017-10-28T07:58:13.397Z,86.44
2017-10-28T07:58:53.952Z,86.25
2017-10-28T07:59:34.496Z,86.06
2017-10-28T08:00:15.071Z,86.06
2017-10-28T08:00:55.594Z,86.16
2017-10-28T08:01:36.137Z,86.25
2017-10-28T08:02:16.681Z,86.25
2017-10-28T08:02:57.187Z,86.49
2017-10-28T08:03:37.723Z,86.49
2017-10-28T08:04:18.248Z,86.1
2017-10-28T08:04:58.771Z,86.01
2017-10-28T08:05:39.327Z,85.87
2017-10-28T08:06:19.859Z,86.06
2017-10-28T08:07:00.406Z,86.06
2017-10-28T08:07:40.936Z,86.06
2017-10-28T08:08:21.504Z,85.87
2017-10-28T08:09:02.028Z,86.35
2017-10-28T08:09:42.618Z,86.58
2017-10-28T08:10:23.189Z,86.25
2017-10-28T08:11:03.747Z,86.2
2017-10-28T08:11:44.262Z,86.63
2017-10-28T08:12:24.817Z,85.97
2017-10-28T08:13:05.387Z,85.72
2017-10-28T08:13:45.949Z,85.82
2017-10-28T08:14:26.468Z,85.87
2017-10-28T08:15:06.990Z,86.01
2017-10-28T08:15:47.549Z,85.63
2017-10-28T08:16:28.083Z,85.34
2017-10-28T08:17:08.591Z,85.82
2017-10-28T08:17:49.125Z,85.82
2017-10-28T08:18:29.689Z,86.1
2017-10-28T08:19:10.271Z,85.72
2017-10-28T08:19:50.802Z,86.01
2017-10-28T08:20:31.313Z,85.53
2017-10-28T08:21:11.857Z,85.34
2017-10-28T08:21:52.445Z,85.34
2017-10-28T08:22:32.974Z,84.96
2017-10-28T08:23:13.554Z,85.05
2017-10-28T08:23:54.129Z,85.87
2017-10-28T08:24:34.631Z,85.91
2017-10-28T08:25:15.168Z,85.44
2017-10-28T08:25:55.748Z,84.96
2017-10-28T08:26:36.309Z,85.25
2017-10-28T08:27:16.861Z,85.25
2017-10-28T08:27:57.387Z,85.91
2017-10-28T08:28:37.966Z,85.72
2017-10-28T08:29:18.516Z,86.1
2017-10-28T08:29:59.058Z,85.53
2017-10-28T08:30:39.615Z,85.91
2017-10-28T08:31:20.198Z,85.72
2017-10-28T08:32:00.726Z,85.72
2017-10-28T08:32:41.242Z,85.72
2017-10-28T08:33:21.787Z,85.53
2017-10-28T08:34:02.356Z,85.53
2017-10-28T08:34:43.007Z,85.63
2017-10-28T08:35:24.393Z,84.96
2017-10-28T08:36:04.945Z,85.15
2017-10-28T08:36:45.525Z,85.53
2017-10-28T08:37:26.056Z,86.01
2017-10-28T08:38:06.604Z,85.72
2017-10-28T08:38:47.136Z,86.2
2017-10-28T08:39:27.697Z,85.91
2017-10-28T08:40:08.267Z,85.91
2017-10-28T08:40:48.809Z,85.72
2017-10-28T08:41:29.379Z,85.82
2017-10-28T08:42:09.919Z,85.63
2017-10-28T08:42:50.494Z,85.63
2017-10-28T08:43:31.029Z,85.72
2017-10-28T08:44:11.552Z,85.63